sensor_id;sensor_type;location;lat;lon;timestamp;temperature;humidity
25554;DHT22;13446;50.926;5.332;2023-08-12T00:02:09;24.00;99.90
25554;DHT22;13446;50.926;5.332;2023-08-12T00:04:35;23.70;99.90
25554;DHT22;13446;50.926;5.332;2023-08-12T00:07:01;23.80;99.90
25554;DHT22;13446;50.926;5.332;2023-08-12T00:09:26;23.80;99.90
25554;DHT22;13446;50.926;5.332;2023-08-12T00:11:52;23.70;99.90
25554;DHT22;13446;50.926;5.332;2023-08-12T00:14:18;23.70;99.90
25554;DHT22;13446;50.926;5.332;2023-08-12T00:16:43;23.70;99.90
25554;DHT22;13446;50.926;5.332;2023-08-12T00:19:09;23.60;99.90
25554;DHT22;13446;50.926;5.332;2023-08-12T00:21:34;23.60;99.90
25554;DHT22;13446;50.926;5.332;2023-08-12T00:24:00;23.60;99.90
25554;DHT22;13446;50.926;5.332;2023-08-12T00:26:25;23.80;99.90
25554;DHT22;13446;50.926;5.332;2023-08-12T00:28:52;23.80;99.90
25554;DHT22;13446;50.926;5.332;2023-08-12T00:31:18;23.80;99.90
25554;DHT22;13446;50.926;5.332;2023-08-12T00:33:43;23.80;99.90
25554;DHT22;13446;50.926;5.332;2023-08-12T00:36:09;23.90;99.90
25554;DHT22;13446;50.926;5.332;2023-08-12T00:38:36;23.90;99.90
25554;DHT22;13446;50.926;5.332;2023-08-12T00:41:03;23.70;99.90
25554;DHT22;13446;50.926;5.332;2023-08-12T00:43:28;23.80;99.90
25554;DHT22;13446;50.926;5.332;2023-08-12T00:45:54;23.80;99.90
25554;DHT22;13446;50.926;5.332;2023-08-12T00:48:19;23.70;99.90
25554;DHT22;13446;50.926;5.332;2023-08-12T00:50:45;23.80;99.90
25554;DHT22;13446;50.926;5.332;2023-08-12T00:53:10;23.70;99.90
25554;DHT22;13446;50.926;5.332;2023-08-12T00:55:37;23.80;99.90
25554;DHT22;13446;50.926;5.332;2023-08-12T00:58:03;23.80;99.90
25554;DHT22;13446;50.926;5.332;2023-08-12T01:00:29;23.90;99.90
25554;DHT22;13446;50.926;5.332;2023-08-12T01:02:55;23.90;99.90
25554;DHT22;13446;50.926;5.332;2023-08-12T01:05:21;23.80;99.90
25554;DHT22;13446;50.926;5.332;2023-08-12T01:07:47;23.70;99.90
25554;DHT22;13446;50.926;5.332;2023-08-12T01:10:13;23.60;99.90
25554;DHT22;13446;50.926;5.332;2023-08-12T01:12:48;23.70;99.90
25554;DHT22;13446;50.926;5.332;2023-08-12T01:15:16;23.70;99.90
25554;DHT22;13446;50.926;5.332;2023-08-12T01:17:46;23.70;99.90
25554;DHT22;13446;50.926;5.332;2023-08-12T01:20:17;23.70;99.90
25554;DHT22;13446;50.926;5.332;2023-08-12T01:22:44;23.60;99.90
25554;DHT22;13446;50.926;5.332;2023-08-12T01:25:09;23.50;99.90
25554;DHT22;13446;50.926;5.332;2023-08-12T01:27:35;23.50;99.90
25554;DHT22;13446;50.926;5.332;2023-08-12T01:30:01;23.50;99.90
25554;DHT22;13446;50.926;5.332;2023-08-12T01:32:31;23.50;99.90
25554;DHT22;13446;50.926;5.332;2023-08-12T01:37:28;23.20;99.90
25554;DHT22;13446;50.926;5.332;2023-08-12T01:39:54;23.20;99.90
25554;DHT22;13446;50.926;5.332;2023-08-12T01:42:20;23.30;99.90
25554;DHT22;13446;50.926;5.332;2023-08-12T01:44:46;23.50;99.90
25554;DHT22;13446;50.926;5.332;2023-08-12T01:47:12;23.60;99.90
25554;DHT22;13446;50.926;5.332;2023-08-12T01:49:37;23.60;99.90
25554;DHT22;13446;50.926;5.332;2023-08-12T01:52:03;23.60;99.90
25554;DHT22;13446;50.926;5.332;2023-08-12T01:54:28;23.60;99.90
25554;DHT22;13446;50.926;5.332;2023-08-12T01:57:02;23.50;99.90
25554;DHT22;13446;50.926;5.332;2023-08-12T01:59:34;23.60;99.90
25554;DHT22;13446;50.926;5.332;2023-08-12T02:01:59;23.50;99.90
25554;DHT22;13446;50.926;5.332;2023-08-12T02:04:25;23.30;99.90
25554;DHT22;13446;50.926;5.332;2023-08-12T02:06:51;23.20;99.90
25554;DHT22;13446;50.926;5.332;2023-08-12T02:09:16;23.20;99.90
25554;DHT22;13446;50.926;5.332;2023-08-12T02:11:42;23.20;99.90
25554;DHT22;13446;50.926;5.332;2023-08-12T02:14:07;23.10;99.90
25554;DHT22;13446;50.926;5.332;2023-08-12T02:16:33;22.90;99.90
25554;DHT22;13446;50.926;5.332;2023-08-12T02:18:59;23.00;99.90
25554;DHT22;13446;50.926;5.332;2023-08-12T02:21:24;23.10;99.90
25554;DHT22;13446;50.926;5.332;2023-08-12T02:23:49;23.20;99.90
25554;DHT22;13446;50.926;5.332;2023-08-12T02:26:15;23.20;99.90
25554;DHT22;13446;50.926;5.332;2023-08-12T02:28:41;23.20;99.90
25554;DHT22;13446;50.926;5.332;2023-08-12T02:31:07;23.30;99.90
25554;DHT22;13446;50.926;5.332;2023-08-12T02:33:32;23.30;99.90
25554;DHT22;13446;50.926;5.332;2023-08-12T02:35:58;23.30;99.90
25554;DHT22;13446;50.926;5.332;2023-08-12T02:38:23;23.30;99.90
25554;DHT22;13446;50.926;5.332;2023-08-12T02:40:49;23.30;99.90
25554;DHT22;13446;50.926;5.332;2023-08-12T02:43:16;23.20;99.90
25554;DHT22;13446;50.926;5.332;2023-08-12T02:45:42;23.30;99.90
25554;DHT22;13446;50.926;5.332;2023-08-12T02:48:09;23.30;99.90
25554;DHT22;13446;50.926;5.332;2023-08-12T02:50:35;23.30;99.90
25554;DHT22;13446;50.926;5.332;2023-08-12T02:53:00;23.20;99.90
25554;DHT22;13446;50.926;5.332;2023-08-12T02:55:26;23.30;99.90
25554;DHT22;13446;50.926;5.332;2023-08-12T02:57:51;23.20;99.90
25554;DHT22;13446;50.926;5.332;2023-08-12T03:00:17;23.20;99.90
25554;DHT22;13446;50.926;5.332;2023-08-12T03:02:43;23.30;99.90
25554;DHT22;13446;50.926;5.332;2023-08-12T03:05:08;23.30;99.90
25554;DHT22;13446;50.926;5.332;2023-08-12T03:07:34;23.40;99.90
25554;DHT22;13446;50.926;5.332;2023-08-12T03:09:59;23.30;99.90
25554;DHT22;13446;50.926;5.332;2023-08-12T03:12:25;23.20;99.90
25554;DHT22;13446;50.926;5.332;2023-08-12T03:14:51;23.00;99.90
25554;DHT22;13446;50.926;5.332;2023-08-12T03:17:16;23.00;99.90
25554;DHT22;13446;50.926;5.332;2023-08-12T03:19:42;23.00;99.90
25554;DHT22;13446;50.926;5.332;2023-08-12T03:22:07;23.00;99.90
25554;DHT22;13446;50.926;5.332;2023-08-12T03:24:33;23.10;99.90
25554;DHT22;13446;50.926;5.332;2023-08-12T03:26:59;23.30;99.90
25554;DHT22;13446;50.926;5.332;2023-08-12T03:29:24;23.30;99.90
25554;DHT22;13446;50.926;5.332;2023-08-12T03:31:50;23.40;99.90
25554;DHT22;13446;50.926;5.332;2023-08-12T03:34:15;23.30;99.90
25554;DHT22;13446;50.926;5.332;2023-08-12T03:36:41;23.10;99.90
25554;DHT22;13446;50.926;5.332;2023-08-12T03:39:06;23.10;99.90
25554;DHT22;13446;50.926;5.332;2023-08-12T03:41:32;23.10;99.90
25554;DHT22;13446;50.926;5.332;2023-08-12T03:43:58;23.10;99.90
25554;DHT22;13446;50.926;5.332;2023-08-12T03:46:23;23.00;99.90
25554;DHT22;13446;50.926;5.332;2023-08-12T03:48:49;22.80;99.90
25554;DHT22;13446;50.926;5.332;2023-08-12T03:51:14;22.70;99.90
25554;DHT22;13446;50.926;5.332;2023-08-12T03:53:40;22.70;99.90
25554;DHT22;13446;50.926;5.332;2023-08-12T03:56:06;22.80;99.90
25554;DHT22;13446;50.926;5.332;2023-08-12T03:58:31;22.80;99.90
25554;DHT22;13446;50.926;5.332;2023-08-12T04:00:57;22.70;99.90
25554;DHT22;13446;50.926;5.332;2023-08-12T04:03:23;22.90;99.90
25554;DHT22;13446;50.926;5.332;2023-08-12T04:05:52;23.00;99.90
25554;DHT22;13446;50.926;5.332;2023-08-12T04:08:18;22.80;99.90
25554;DHT22;13446;50.926;5.332;2023-08-12T04:10:46;22.90;99.90
25554;DHT22;13446;50.926;5.332;2023-08-12T04:13:13;22.90;99.90
25554;DHT22;13446;50.926;5.332;2023-08-12T04:15:38;22.80;99.90
25554;DHT22;13446;50.926;5.332;2023-08-12T04:18:04;22.70;99.90
25554;DHT22;13446;50.926;5.332;2023-08-12T04:20:30;22.50;99.90
25554;DHT22;13446;50.926;5.332;2023-08-12T04:22:55;22.40;99.90
25554;DHT22;13446;50.926;5.332;2023-08-12T04:25:21;22.30;99.90
25554;DHT22;13446;50.926;5.332;2023-08-12T04:27:47;22.30;99.90
25554;DHT22;13446;50.926;5.332;2023-08-12T04:30:15;22.30;99.90
25554;DHT22;13446;50.926;5.332;2023-08-12T04:32:41;22.30;99.90
25554;DHT22;13446;50.926;5.332;2023-08-12T04:35:07;22.40;99.90
25554;DHT22;13446;50.926;5.332;2023-08-12T04:37:32;22.40;99.90
25554;DHT22;13446;50.926;5.332;2023-08-12T04:39:58;22.40;99.90
25554;DHT22;13446;50.926;5.332;2023-08-12T04:42:24;22.40;99.90
25554;DHT22;13446;50.926;5.332;2023-08-12T04:44:50;22.30;99.90
25554;DHT22;13446;50.926;5.332;2023-08-12T04:47:16;22.30;99.90
25554;DHT22;13446;50.926;5.332;2023-08-12T04:49:42;22.20;99.90
25554;DHT22;13446;50.926;5.332;2023-08-12T04:52:07;22.20;99.90
25554;DHT22;13446;50.926;5.332;2023-08-12T04:54:33;22.10;99.90
25554;DHT22;13446;50.926;5.332;2023-08-12T04:56:59;22.20;99.90
25554;DHT22;13446;50.926;5.332;2023-08-12T04:59:25;22.20;99.90
25554;DHT22;13446;50.926;5.332;2023-08-12T05:01:50;22.20;99.90
25554;DHT22;13446;50.926;5.332;2023-08-12T05:04:16;22.20;99.90
25554;DHT22;13446;50.926;5.332;2023-08-12T05:06:41;22.10;99.90
25554;DHT22;13446;50.926;5.332;2023-08-12T05:09:07;22.10;99.90
25554;DHT22;13446;50.926;5.332;2023-08-12T05:11:33;22.10;99.90
25554;DHT22;13446;50.926;5.332;2023-08-12T05:13:59;22.10;99.90
25554;DHT22;13446;50.926;5.332;2023-08-12T05:16:24;22.00;99.90
25554;DHT22;13446;50.926;5.332;2023-08-12T05:18:50;21.90;99.90
25554;DHT22;13446;50.926;5.332;2023-08-12T05:21:16;21.90;99.90
25554;DHT22;13446;50.926;5.332;2023-08-12T05:23:42;21.90;99.90
25554;DHT22;13446;50.926;5.332;2023-08-12T05:26:07;21.80;99.90
25554;DHT22;13446;50.926;5.332;2023-08-12T05:28:33;21.80;99.90
25554;DHT22;13446;50.926;5.332;2023-08-12T05:30:58;21.80;99.90
25554;DHT22;13446;50.926;5.332;2023-08-12T05:33:24;21.80;99.90
25554;DHT22;13446;50.926;5.332;2023-08-12T05:35:50;21.80;99.90
25554;DHT22;13446;50.926;5.332;2023-08-12T05:38:16;21.90;99.90
25554;DHT22;13446;50.926;5.332;2023-08-12T05:40:41;21.70;99.90
25554;DHT22;13446;50.926;5.332;2023-08-12T05:43:07;21.70;99.90
25554;DHT22;13446;50.926;5.332;2023-08-12T05:45:32;21.70;99.90
25554;DHT22;13446;50.926;5.332;2023-08-12T05:47:58;21.80;99.90
25554;DHT22;13446;50.926;5.332;2023-08-12T05:50:23;21.80;99.90
25554;DHT22;13446;50.926;5.332;2023-08-12T05:52:49;21.70;99.90
25554;DHT22;13446;50.926;5.332;2023-08-12T05:55:15;21.70;99.90
25554;DHT22;13446;50.926;5.332;2023-08-12T05:57:40;21.70;99.90
25554;DHT22;13446;50.926;5.332;2023-08-12T06:00:06;21.70;99.90
25554;DHT22;13446;50.926;5.332;2023-08-12T06:02:32;21.70;99.90
25554;DHT22;13446;50.926;5.332;2023-08-12T06:04:57;21.70;99.90
25554;DHT22;13446;50.926;5.332;2023-08-12T06:07:23;21.80;99.90
25554;DHT22;13446;50.926;5.332;2023-08-12T06:09:49;21.80;99.90
25554;DHT22;13446;50.926;5.332;2023-08-12T06:12:15;21.70;99.90
25554;DHT22;13446;50.926;5.332;2023-08-12T06:14:41;21.70;99.90
25554;DHT22;13446;50.926;5.332;2023-08-12T06:17:06;21.70;99.90
25554;DHT22;13446;50.926;5.332;2023-08-12T06:19:32;21.60;99.90
25554;DHT22;13446;50.926;5.332;2023-08-12T06:21:58;21.70;99.90
25554;DHT22;13446;50.926;5.332;2023-08-12T06:24:23;21.70;99.90
25554;DHT22;13446;50.926;5.332;2023-08-12T06:26:49;21.70;99.90
25554;DHT22;13446;50.926;5.332;2023-08-12T06:29:14;21.70;99.90
25554;DHT22;13446;50.926;5.332;2023-08-12T06:31:40;21.80;99.90
25554;DHT22;13446;50.926;5.332;2023-08-12T06:34:05;21.80;99.90
25554;DHT22;13446;50.926;5.332;2023-08-12T06:36:31;21.90;99.90
25554;DHT22;13446;50.926;5.332;2023-08-12T06:38:57;21.90;99.90
25554;DHT22;13446;50.926;5.332;2023-08-12T06:41:24;22.00;99.90
25554;DHT22;13446;50.926;5.332;2023-08-12T06:43:50;21.80;99.90
25554;DHT22;13446;50.926;5.332;2023-08-12T06:46:15;22.00;99.90
25554;DHT22;13446;50.926;5.332;2023-08-12T06:48:41;21.90;99.90
25554;DHT22;13446;50.926;5.332;2023-08-12T06:51:08;22.00;99.90
25554;DHT22;13446;50.926;5.332;2023-08-12T06:53:38;22.00;99.90
25554;DHT22;13446;50.926;5.332;2023-08-12T06:56:03;21.90;99.90
25554;DHT22;13446;50.926;5.332;2023-08-12T06:58:29;21.80;99.90
25554;DHT22;13446;50.926;5.332;2023-08-12T07:00:54;21.80;99.90
25554;DHT22;13446;50.926;5.332;2023-08-12T07:03:20;21.80;99.90
25554;DHT22;13446;50.926;5.332;2023-08-12T07:05:45;21.90;99.90
25554;DHT22;13446;50.926;5.332;2023-08-12T07:08:11;22.10;99.90
25554;DHT22;13446;50.926;5.332;2023-08-12T07:10:40;22.20;99.90
25554;DHT22;13446;50.926;5.332;2023-08-12T07:13:06;22.10;99.90
25554;DHT22;13446;50.926;5.332;2023-08-12T07:15:35;22.20;99.90
25554;DHT22;13446;50.926;5.332;2023-08-12T07:18:00;22.30;99.90
25554;DHT22;13446;50.926;5.332;2023-08-12T07:20:26;22.30;99.90
25554;DHT22;13446;50.926;5.332;2023-08-12T07:22:52;22.30;99.90
25554;DHT22;13446;50.926;5.332;2023-08-12T07:25:18;22.50;99.90
25554;DHT22;13446;50.926;5.332;2023-08-12T07:27:43;22.60;99.90
25554;DHT22;13446;50.926;5.332;2023-08-12T07:30:09;22.80;99.90
25554;DHT22;13446;50.926;5.332;2023-08-12T07:32:36;22.80;99.90
25554;DHT22;13446;50.926;5.332;2023-08-12T07:35:01;22.90;99.90
25554;DHT22;13446;50.926;5.332;2023-08-12T07:37:27;23.10;99.90
25554;DHT22;13446;50.926;5.332;2023-08-12T07:39:52;23.10;99.90
25554;DHT22;13446;50.926;5.332;2023-08-12T07:42:18;23.20;99.90
25554;DHT22;13446;50.926;5.332;2023-08-12T07:44:43;23.20;99.90
25554;DHT22;13446;50.926;5.332;2023-08-12T07:47:09;23.40;99.90
25554;DHT22;13446;50.926;5.332;2023-08-12T07:49:35;23.50;99.90
25554;DHT22;13446;50.926;5.332;2023-08-12T07:52:00;23.80;99.90
25554;DHT22;13446;50.926;5.332;2023-08-12T07:54:26;24.10;99.90
25554;DHT22;13446;50.926;5.332;2023-08-12T07:56:52;24.20;99.90
25554;DHT22;13446;50.926;5.332;2023-08-12T07:59:19;24.20;99.90
25554;DHT22;13446;50.926;5.332;2023-08-12T08:01:44;24.30;99.90
25554;DHT22;13446;50.926;5.332;2023-08-12T08:04:10;24.30;99.90
25554;DHT22;13446;50.926;5.332;2023-08-12T08:06:36;24.20;99.90
25554;DHT22;13446;50.926;5.332;2023-08-12T08:09:02;24.30;99.90
25554;DHT22;13446;50.926;5.332;2023-08-12T08:11:29;24.20;99.90
25554;DHT22;13446;50.926;5.332;2023-08-12T08:13:54;24.10;99.90
25554;DHT22;13446;50.926;5.332;2023-08-12T08:16:20;24.10;99.90
25554;DHT22;13446;50.926;5.332;2023-08-12T08:18:45;24.10;99.90
25554;DHT22;13446;50.926;5.332;2023-08-12T08:21:11;24.00;99.90
25554;DHT22;13446;50.926;5.332;2023-08-12T08:23:36;24.00;99.90
25554;DHT22;13446;50.926;5.332;2023-08-12T08:26:02;23.90;99.90
25554;DHT22;13446;50.926;5.332;2023-08-12T08:28:28;23.90;99.90
25554;DHT22;13446;50.926;5.332;2023-08-12T08:30:53;24.00;99.90
25554;DHT22;13446;50.926;5.332;2023-08-12T08:33:19;24.00;99.90
25554;DHT22;13446;50.926;5.332;2023-08-12T08:35:44;24.00;99.90
25554;DHT22;13446;50.926;5.332;2023-08-12T08:38:10;23.90;99.90
25554;DHT22;13446;50.926;5.332;2023-08-12T08:40:35;23.90;99.90
25554;DHT22;13446;50.926;5.332;2023-08-12T08:43:02;23.90;99.90
25554;DHT22;13446;50.926;5.332;2023-08-12T08:45:31;24.00;99.90
25554;DHT22;13446;50.926;5.332;2023-08-12T08:47:57;24.10;99.90
25554;DHT22;13446;50.926;5.332;2023-08-12T08:50:24;24.20;99.90
25554;DHT22;13446;50.926;5.332;2023-08-12T08:52:50;24.20;99.90
25554;DHT22;13446;50.926;5.332;2023-08-12T08:55:16;24.20;99.90
25554;DHT22;13446;50.926;5.332;2023-08-12T08:57:43;24.30;99.90
25554;DHT22;13446;50.926;5.332;2023-08-12T09:00:09;24.40;99.90
25554;DHT22;13446;50.926;5.332;2023-08-12T09:02:36;24.50;99.90
25554;DHT22;13446;50.926;5.332;2023-08-12T09:05:02;24.50;99.90
25554;DHT22;13446;50.926;5.332;2023-08-12T09:07:28;24.40;99.90
25554;DHT22;13446;50.926;5.332;2023-08-12T09:09:55;24.60;99.90
25554;DHT22;13446;50.926;5.332;2023-08-12T09:12:21;24.50;99.90
25554;DHT22;13446;50.926;5.332;2023-08-12T09:14:48;24.60;99.90
25554;DHT22;13446;50.926;5.332;2023-08-12T09:17:14;24.40;99.90
25554;DHT22;13446;50.926;5.332;2023-08-12T09:19:40;24.40;99.90
25554;DHT22;13446;50.926;5.332;2023-08-12T09:22:06;24.50;99.90
25554;DHT22;13446;50.926;5.332;2023-08-12T09:24:32;24.50;99.90
25554;DHT22;13446;50.926;5.332;2023-08-12T09:26:58;24.50;99.90
25554;DHT22;13446;50.926;5.332;2023-08-12T09:29:23;24.60;99.90
25554;DHT22;13446;50.926;5.332;2023-08-12T09:31:52;24.70;99.90
25554;DHT22;13446;50.926;5.332;2023-08-12T09:34:17;24.80;99.90
25554;DHT22;13446;50.926;5.332;2023-08-12T09:36:43;24.90;99.90
25554;DHT22;13446;50.926;5.332;2023-08-12T09:39:09;25.10;99.90
25554;DHT22;13446;50.926;5.332;2023-08-12T09:41:34;25.30;99.90
25554;DHT22;13446;50.926;5.332;2023-08-12T09:44:01;25.20;99.90
25554;DHT22;13446;50.926;5.332;2023-08-12T09:46:27;25.00;99.90
25554;DHT22;13446;50.926;5.332;2023-08-12T09:48:53;24.90;99.90
25554;DHT22;13446;50.926;5.332;2023-08-12T09:51:19;25.20;99.90
25554;DHT22;13446;50.926;5.332;2023-08-12T09:53:44;25.70;99.90
25554;DHT22;13446;50.926;5.332;2023-08-12T09:56:11;25.80;99.90
25554;DHT22;13446;50.926;5.332;2023-08-12T09:58:37;26.00;99.90
25554;DHT22;13446;50.926;5.332;2023-08-12T10:01:03;26.10;99.90
25554;DHT22;13446;50.926;5.332;2023-08-12T10:03:30;26.20;99.90
25554;DHT22;13446;50.926;5.332;2023-08-12T10:05:57;27.00;99.90
25554;DHT22;13446;50.926;5.332;2023-08-12T10:08:30;28.10;99.90
25554;DHT22;13446;50.926;5.332;2023-08-12T10:10:56;28.80;99.90
25554;DHT22;13446;50.926;5.332;2023-08-12T10:13:24;28.80;99.90
25554;DHT22;13446;50.926;5.332;2023-08-12T10:15:49;29.30;99.90
25554;DHT22;13446;50.926;5.332;2023-08-12T10:18:16;29.90;99.90
25554;DHT22;13446;50.926;5.332;2023-08-12T10:20:43;30.20;99.90
25554;DHT22;13446;50.926;5.332;2023-08-12T10:23:12;29.50;99.90
25554;DHT22;13446;50.926;5.332;2023-08-12T10:25:39;29.30;99.90
25554;DHT22;13446;50.926;5.332;2023-08-12T10:28:06;29.20;99.90
25554;DHT22;13446;50.926;5.332;2023-08-12T10:30:32;28.60;99.90
25554;DHT22;13446;50.926;5.332;2023-08-12T10:32:59;28.50;99.90
25554;DHT22;13446;50.926;5.332;2023-08-12T10:35:44;28.40;99.90
25554;DHT22;13446;50.926;5.332;2023-08-12T10:38:11;28.90;99.90
25554;DHT22;13446;50.926;5.332;2023-08-12T10:40:36;29.90;99.90
25554;DHT22;13446;50.926;5.332;2023-08-12T10:43:02;29.90;99.90
25554;DHT22;13446;50.926;5.332;2023-08-12T10:45:40;29.70;99.90
25554;DHT22;13446;50.926;5.332;2023-08-12T10:48:16;29.50;99.90
25554;DHT22;13446;50.926;5.332;2023-08-12T10:50:43;28.80;99.90
25554;DHT22;13446;50.926;5.332;2023-08-12T10:53:23;28.10;99.90
25554;DHT22;13446;50.926;5.332;2023-08-12T10:55:50;28.10;99.90
25554;DHT22;13446;50.926;5.332;2023-08-12T10:58:35;28.30;99.90
25554;DHT22;13446;50.926;5.332;2023-08-12T11:01:00;28.60;99.90
25554;DHT22;13446;50.926;5.332;2023-08-12T11:03:31;28.90;99.90
25554;DHT22;13446;50.926;5.332;2023-08-12T11:05:58;28.50;99.90
25554;DHT22;13446;50.926;5.332;2023-08-12T11:08:25;28.20;99.90
25554;DHT22;13446;50.926;5.332;2023-08-12T11:10:52;28.00;99.90
25554;DHT22;13446;50.926;5.332;2023-08-12T11:13:22;27.60;99.90
25554;DHT22;13446;50.926;5.332;2023-08-12T11:15:48;27.30;99.90
25554;DHT22;13446;50.926;5.332;2023-08-12T11:18:15;27.10;99.90
25554;DHT22;13446;50.926;5.332;2023-08-12T11:20:41;27.10;99.90
25554;DHT22;13446;50.926;5.332;2023-08-12T11:23:07;27.00;99.90
25554;DHT22;13446;50.926;5.332;2023-08-12T11:25:34;26.90;99.90
25554;DHT22;13446;50.926;5.332;2023-08-12T11:28:00;27.10;99.90
25554;DHT22;13446;50.926;5.332;2023-08-12T11:30:26;27.40;99.90
25554;DHT22;13446;50.926;5.332;2023-08-12T11:32:52;27.30;99.90
25554;DHT22;13446;50.926;5.332;2023-08-12T11:35:18;27.50;99.90
25554;DHT22;13446;50.926;5.332;2023-08-12T11:37:48;27.70;99.90
25554;DHT22;13446;50.926;5.332;2023-08-12T11:40:17;28.10;99.90
25554;DHT22;13446;50.926;5.332;2023-08-12T11:42:43;29.30;99.90
25554;DHT22;13446;50.926;5.332;2023-08-12T11:45:09;31.20;99.90
25554;DHT22;13446;50.926;5.332;2023-08-12T11:47:36;32.60;99.90
25554;DHT22;13446;50.926;5.332;2023-08-12T11:50:02;32.70;99.40
25554;DHT22;13446;50.926;5.332;2023-08-12T11:52:30;32.60;97.50
25554;DHT22;13446;50.926;5.332;2023-08-12T11:54:55;32.90;95.40
25554;DHT22;13446;50.926;5.332;2023-08-12T11:57:22;33.80;94.50
25554;DHT22;13446;50.926;5.332;2023-08-12T11:59:47;34.70;86.00
25554;DHT22;13446;50.926;5.332;2023-08-12T12:02:13;35.20;78.30
25554;DHT22;13446;50.926;5.332;2023-08-12T12:04:40;35.80;73.90
25554;DHT22;13446;50.926;5.332;2023-08-12T12:07:16;36.20;73.20
25554;DHT22;13446;50.926;5.332;2023-08-12T12:09:45;36.80;67.20
25554;DHT22;13446;50.926;5.332;2023-08-12T12:12:10;37.80;63.10
25554;DHT22;13446;50.926;5.332;2023-08-12T12:14:36;38.10;56.70
25554;DHT22;13446;50.926;5.332;2023-08-12T12:17:06;38.20;54.10
25554;DHT22;13446;50.926;5.332;2023-08-12T12:19:32;37.70;54.10
25554;DHT22;13446;50.926;5.332;2023-08-12T12:21:58;38.00;53.00
25554;DHT22;13446;50.926;5.332;2023-08-12T12:24:29;38.00;53.60
25554;DHT22;13446;50.926;5.332;2023-08-12T12:26:54;37.20;52.80
25554;DHT22;13446;50.926;5.332;2023-08-12T12:29:21;37.10;52.70
25554;DHT22;13446;50.926;5.332;2023-08-12T12:31:47;37.00;53.90
25554;DHT22;13446;50.926;5.332;2023-08-12T12:34:12;36.80;51.60
25554;DHT22;13446;50.926;5.332;2023-08-12T12:36:39;36.60;53.20
25554;DHT22;13446;50.926;5.332;2023-08-12T12:39:06;36.50;51.90
25554;DHT22;13446;50.926;5.332;2023-08-12T12:41:32;36.80;51.30
25554;DHT22;13446;50.926;5.332;2023-08-12T12:44:01;36.90;53.30
25554;DHT22;13446;50.926;5.332;2023-08-12T12:46:29;37.20;48.80
25554;DHT22;13446;50.926;5.332;2023-08-12T12:48:55;37.10;50.00
25554;DHT22;13446;50.926;5.332;2023-08-12T12:51:21;37.20;49.10
25554;DHT22;13446;50.926;5.332;2023-08-12T12:53:46;36.80;49.30
25554;DHT22;13446;50.926;5.332;2023-08-12T12:56:12;36.40;51.20
25554;DHT22;13446;50.926;5.332;2023-08-12T12:58:37;36.40;51.60
25554;DHT22;13446;50.926;5.332;2023-08-12T13:01:04;36.30;51.60
25554;DHT22;13446;50.926;5.332;2023-08-12T13:03:30;36.60;52.10
25554;DHT22;13446;50.926;5.332;2023-08-12T13:05:56;36.80;52.30
25554;DHT22;13446;50.926;5.332;2023-08-12T13:08:21;36.30;51.80
25554;DHT22;13446;50.926;5.332;2023-08-12T13:11:00;36.40;51.70
25554;DHT22;13446;50.926;5.332;2023-08-12T13:13:26;36.50;53.10
25554;DHT22;13446;50.926;5.332;2023-08-12T13:15:51;36.30;52.20
25554;DHT22;13446;50.926;5.332;2023-08-12T13:18:17;36.40;54.00
25554;DHT22;13446;50.926;5.332;2023-08-12T13:20:43;36.70;53.20
25554;DHT22;13446;50.926;5.332;2023-08-12T13:23:08;36.50;52.90
25554;DHT22;13446;50.926;5.332;2023-08-12T13:25:34;36.30;52.20
25554;DHT22;13446;50.926;5.332;2023-08-12T13:28:00;36.00;52.90
25554;DHT22;13446;50.926;5.332;2023-08-12T13:30:26;34.90;53.50
25554;DHT22;13446;50.926;5.332;2023-08-12T13:32:51;33.70;56.20
25554;DHT22;13446;50.926;5.332;2023-08-12T13:35:17;32.40;59.40
25554;DHT22;13446;50.926;5.332;2023-08-12T13:37:43;31.30;64.50
25554;DHT22;13446;50.926;5.332;2023-08-12T13:40:08;30.90;69.80
25554;DHT22;13446;50.926;5.332;2023-08-12T13:42:34;30.50;70.60
25554;DHT22;13446;50.926;5.332;2023-08-12T13:45:00;29.90;70.90
25554;DHT22;13446;50.926;5.332;2023-08-12T13:47:26;29.70;75.10
25554;DHT22;13446;50.926;5.332;2023-08-12T13:49:51;29.60;78.10
25554;DHT22;13446;50.926;5.332;2023-08-12T13:52:17;29.60;79.30
25554;DHT22;13446;50.926;5.332;2023-08-12T13:54:43;29.60;78.30
25554;DHT22;13446;50.926;5.332;2023-08-12T13:57:08;29.70;77.90
25554;DHT22;13446;50.926;5.332;2023-08-12T13:59:34;29.70;79.40
25554;DHT22;13446;50.926;5.332;2023-08-12T14:01:59;29.80;80.70
25554;DHT22;13446;50.926;5.332;2023-08-12T14:04:25;29.80;79.50
25554;DHT22;13446;50.926;5.332;2023-08-12T14:06:51;29.80;78.80
25554;DHT22;13446;50.926;5.332;2023-08-12T14:09:17;29.80;79.10
25554;DHT22;13446;50.926;5.332;2023-08-12T14:11:43;29.40;80.30
25554;DHT22;13446;50.926;5.332;2023-08-12T14:14:10;29.60;79.70
25554;DHT22;13446;50.926;5.332;2023-08-12T14:16:36;29.70;78.40
25554;DHT22;13446;50.926;5.332;2023-08-12T14:19:02;29.90;78.00
25554;DHT22;13446;50.926;5.332;2023-08-12T14:21:28;29.80;77.40
25554;DHT22;13446;50.926;5.332;2023-08-12T14:23:53;29.80;76.90
25554;DHT22;13446;50.926;5.332;2023-08-12T14:26:19;29.30;79.20
25554;DHT22;13446;50.926;5.332;2023-08-12T14:28:44;29.20;81.10
25554;DHT22;13446;50.926;5.332;2023-08-12T14:31:10;29.10;82.30
25554;DHT22;13446;50.926;5.332;2023-08-12T14:33:35;29.20;79.90
25554;DHT22;13446;50.926;5.332;2023-08-12T14:36:02;29.20;79.30
25554;DHT22;13446;50.926;5.332;2023-08-12T14:38:28;29.20;77.90
25554;DHT22;13446;50.926;5.332;2023-08-12T14:41:03;29.20;76.90
25554;DHT22;13446;50.926;5.332;2023-08-12T14:43:28;29.00;75.70
25554;DHT22;13446;50.926;5.332;2023-08-12T14:46:09;28.80;77.60
25554;DHT22;13446;50.926;5.332;2023-08-12T14:48:34;28.80;78.50
25554;DHT22;13446;50.926;5.332;2023-08-12T14:51:03;28.70;79.30
25554;DHT22;13446;50.926;5.332;2023-08-12T14:53:28;28.60;80.10
25554;DHT22;13446;50.926;5.332;2023-08-12T14:55:54;28.70;80.50
25554;DHT22;13446;50.926;5.332;2023-08-12T14:58:55;28.70;79.80
25554;DHT22;13446;50.926;5.332;2023-08-12T15:01:36;28.80;80.20
25554;DHT22;13446;50.926;5.332;2023-08-12T15:04:05;28.50;79.00
25554;DHT22;13446;50.926;5.332;2023-08-12T15:06:30;28.30;75.90
25554;DHT22;13446;50.926;5.332;2023-08-12T15:08:59;28.20;78.20
25554;DHT22;13446;50.926;5.332;2023-08-12T15:11:25;28.20;79.90
25554;DHT22;13446;50.926;5.332;2023-08-12T15:13:50;28.30;79.20
25554;DHT22;13446;50.926;5.332;2023-08-12T15:16:25;28.30;74.60
25554;DHT22;13446;50.926;5.332;2023-08-12T15:18:51;28.20;74.90
25554;DHT22;13446;50.926;5.332;2023-08-12T15:21:16;28.20;74.80
25554;DHT22;13446;50.926;5.332;2023-08-12T15:23:42;27.90;76.10
25554;DHT22;13446;50.926;5.332;2023-08-12T15:26:07;27.80;77.10
25554;DHT22;13446;50.926;5.332;2023-08-12T15:28:33;27.60;77.70